Time;durP1;ratioP1;P1;durP2;ratioP2;P2;SDS_P1;SDS_P2;PMS_P1;PMS_P2;Temp;Humidity;BMP_temperature;BMP_pressure;BME280_temperature;BME280_humidity;BME280_pressure;Samples;Min_cycle;Max_cycle;Signal;HPM_P1;HPM_P2
2024/03/14 00:02:06;;;;;;;4.95;4.22;;;12.00;99.90;;;;;;5034120;28;20213;-87
2024/03/14 00:04:31;;;;;;;4.50;4.10;;;11.80;99.90;;;;;;5033913;28;20597;-86
2024/03/14 00:06:57;;;;;;;5.93;4.10;;;11.40;99.90;;;;;;5037546;28;20794;-87
2024/03/14 00:09:22;;;;;;;6.90;5.20;;;11.50;99.90;;;;;;5036938;28;20669;-87
2024/03/14 00:11:49;;;;;;;4.87;4.37;;;11.50;99.90;;;;;;5038718;28;20187;-87
2024/03/14 00:14:15;;;;;;;5.68;4.82;;;11.10;99.90;;;;;;5040983;28;20203;-87
2024/03/14 00:16:40;;;;;;;5.20;4.70;;;11.50;99.90;;;;;;5048248;28;20205;-87
2024/03/14 00:19:06;;;;;;;4.63;4.20;;;11.20;99.90;;;;;;5048093;28;20505;-87
2024/03/14 00:21:32;;;;;;;4.40;3.95;;;11.60;99.90;;;;;;5044920;28;20508;-87
2024/03/14 00:23:58;;;;;;;4.93;4.47;;;11.20;99.90;;;;;;5043626;28;20228;-87
2024/03/14 00:26:23;;;;;;;5.20;4.60;;;11.20;99.90;;;;;;5044368;28;20210;-86
2024/03/14 00:28:49;;;;;;;5.60;4.40;;;11.60;99.90;;;;;;5036558;28;20195;-87
2024/03/14 00:31:14;;;;;;;5.03;4.53;;;11.20;99.90;;;;;;5035119;28;20188;-88
2024/03/14 00:33:40;;;;;;;5.20;4.13;;;11.00;99.90;;;;;;5034887;28;20188;-85
2024/03/14 00:36:11;;;;;;;4.82;4.13;;;10.70;99.90;;;;;;5038273;28;20215;-86
2024/03/14 00:38:36;;;;;;;5.53;4.15;;;11.10;99.90;;;;;;5043194;28;20236;-85
2024/03/14 00:41:03;;;;;;;4.93;4.07;;;10.80;99.90;;;;;;5053178;28;20168;-86
2024/03/14 00:43:30;;;;;;;5.30;4.68;;;10.80;99.90;;;;;;5054307;28;20199;-87
2024/03/14 00:45:56;;;;;;;4.78;4.38;;;11.00;99.90;;;;;;5046454;28;20213;-85
2024/03/14 00:48:22;;;;;;;4.32;3.90;;;11.10;99.90;;;;;;5033204;28;20183;-86
2024/03/14 00:50:49;;;;;;;8.57;5.07;;;10.30;99.90;;;;;;5033523;28;20187;-86
2024/03/14 00:53:15;;;;;;;5.78;4.68;;;10.70;99.90;;;;;;5034739;28;20281;-86
2024/03/14 00:55:41;;;;;;;5.20;4.70;;;10.70;99.90;;;;;;5034583;28;20198;-86
2024/03/14 00:58:06;;;;;;;6.63;4.75;;;10.80;99.90;;;;;;5035620;28;20206;-86
2024/03/14 01:00:32;;;;;;;7.00;4.20;;;10.90;99.90;;;;;;5032911;28;20199;-86
2024/03/14 01:02:57;;;;;;;5.50;4.73;;;10.90;99.90;;;;;;5034503;28;20229;-85
2024/03/14 01:05:24;;;;;;;6.43;4.73;;;10.60;99.90;;;;;;5035509;28;20185;-86
2024/03/14 01:07:50;;;;;;;5.82;5.28;;;10.70;99.90;;;;;;5032860;28;20229;-86
2024/03/14 01:10:16;;;;;;;5.15;4.65;;;10.50;99.90;;;;;;5035211;28;20194;-86
2024/03/14 01:12:42;;;;;;;6.27;5.60;;;10.80;99.90;;;;;;5034297;28;20183;-86
2024/03/14 01:15:08;;;;;;;4.73;4.33;;;10.60;99.90;;;;;;5017803;28;20524;-86
2024/03/14 01:17:34;;;;;;;6.57;4.70;;;10.70;99.90;;;;;;5015590;28;20208;-86
2024/03/14 01:20:02;;;;;;;6.03;5.35;;;11.10;99.90;;;;;;5035082;28;20322;-87
2024/03/14 01:22:29;;;;;;;6.60;5.93;;;11.10;99.90;;;;;;5032701;28;20216;-86
2024/03/14 01:24:54;;;;;;;6.43;4.95;;;11.10;99.90;;;;;;5032898;28;20275;-86
2024/03/14 01:27:20;;;;;;;5.30;4.73;;;11.20;99.90;;;;;;5036966;28;20254;-86
2024/03/14 01:29:48;;;;;;;6.63;5.33;;;10.90;99.90;;;;;;5034421;28;20217;-86
2024/03/14 01:32:13;;;;;;;6.38;5.78;;;10.50;99.90;;;;;;5036611;28;20195;-86
2024/03/14 01:34:39;;;;;;;5.43;4.90;;;10.90;99.90;;;;;;5034732;28;20184;-86
2024/03/14 01:37:10;;;;;;;6.70;5.73;;;11.10;99.90;;;;;;5034337;28;20199;-87
2024/03/14 01:39:36;;;;;;;6.10;5.60;;;10.80;99.90;;;;;;5040857;28;20194;-87
2024/03/14 01:42:05;;;;;;;6.72;6.13;;;10.70;99.90;;;;;;5051918;28;20171;-86
2024/03/14 01:44:56;;;;;;;5.70;5.30;;;10.50;99.90;;;;;;5050194;28;20191;-87
2024/03/14 01:47:23;;;;;;;6.50;5.90;;;10.70;99.90;;;;;;5034042;28;20218;-86
2024/03/14 01:49:50;;;;;;;7.10;6.22;;;10.90;99.90;;;;;;5045311;28;20194;-86
2024/03/14 01:52:16;;;;;;;6.57;5.93;;;10.30;99.90;;;;;;5050321;28;20214;-86
2024/03/14 01:54:41;;;;;;;6.13;5.60;;;10.50;99.90;;;;;;5059553;28;20708;-86
2024/03/14 01:57:09;;;;;;;6.70;6.10;;;10.60;99.90;;;;;;5042011;28;20235;-87
2024/03/14 01:59:36;;;;;;;6.57;5.97;;;10.30;99.90;;;;;;5053363;28;20158;-86
2024/03/14 02:02:02;;;;;;;6.22;5.60;;;10.70;99.90;;;;;;5058592;28;20186;-87
2024/03/14 02:04:56;;;;;;;7.57;6.68;;;10.50;99.90;;;;;;5053682;28;20540;-87
2024/03/14 02:07:26;;;;;;;7.95;7.15;;;10.50;99.90;;;;;;5035502;28;20222;-86
2024/03/14 02:09:52;;;;;;;7.38;6.57;;;10.80;99.90;;;;;;5053387;28;20182;-86
2024/03/14 02:12:18;;;;;;;7.27;6.53;;;10.40;99.90;;;;;;5037247;28;20310;-86
2024/03/14 02:14:44;;;;;;;6.50;5.85;;;10.30;99.90;;;;;;5037167;28;20187;-87
2024/03/14 02:17:10;;;;;;;7.70;6.80;;;10.40;99.90;;;;;;5038642;28;20202;-86
2024/03/14 02:19:38;;;;;;;7.60;6.28;;;10.30;99.90;;;;;;5040999;28;20184;-87
2024/03/14 02:22:04;;;;;;;7.10;6.40;;;10.60;99.90;;;;;;5039821;28;20187;-87
2024/03/14 02:24:30;;;;;;;6.90;6.20;;;10.70;99.90;;;;;;5061315;28;20194;-86
2024/03/14 02:26:55;;;;;;;8.30;7.00;;;10.20;99.90;;;;;;5043196;28;20203;-86
2024/03/14 02:29:22;;;;;;;8.10;6.20;;;10.40;99.90;;;;;;5040161;28;20176;-87
2024/03/14 02:31:53;;;;;;;6.50;5.90;;;10.30;99.90;;;;;;5060916;28;20507;-87
2024/03/14 02:34:19;;;;;;;12.20;6.80;;;10.20;99.90;;;;;;5040212;28;20189;-85
2024/03/14 02:36:45;;;;;;;6.00;5.50;;;10.30;99.90;;;;;;5049289;28;20199;-85
2024/03/14 02:39:10;;;;;;;6.70;6.10;;;10.00;99.90;;;;;;5058888;28;20438;-85
2024/03/14 02:41:36;;;;;;;7.67;6.23;;;10.20;99.90;;;;;;5039700;28;20199;-85
2024/03/14 02:44:16;;;;;;;6.90;6.23;;;11.00;99.90;;;;;;5040042;28;20324;-85
2024/03/14 02:46:43;;;;;;;7.13;6.40;;;10.10;99.90;;;;;;5040471;28;20466;-86
2024/03/14 02:49:13;;;;;;;7.15;6.07;;;10.60;99.90;;;;;;5043308;28;20210;-86
2024/03/14 02:51:39;;;;;;;7.88;6.68;;;10.10;99.90;;;;;;5041207;28;20295;-85
2024/03/14 02:54:05;;;;;;;7.00;6.00;;;10.00;99.90;;;;;;5059189;28;20187;-85
2024/03/14 02:56:34;;;;;;;9.63;6.43;;;10.00;99.90;;;;;;5042402;28;20519;-86
2024/03/14 02:59:00;;;;;;;7.07;6.30;;;10.40;99.90;;;;;;5031804;28;20502;-85
2024/03/14 03:01:26;;;;;;;7.20;6.50;;;9.70;99.90;;;;;;5036475;28;20184;-86
2024/03/14 03:03:55;;;;;;;6.53;5.80;;;9.90;99.90;;;;;;5023189;28;20677;-86
2024/03/14 03:06:21;;;;;;;7.72;6.63;;;9.90;99.90;;;;;;5039318;28;20200;-86
2024/03/14 03:08:48;;;;;;;7.57;6.77;;;;;;;;;;5037903;28;20174;-85
2024/03/14 03:11:13;;;;;;;7.90;6.10;;;9.90;99.90;;;;;;5039170;28;20233;-86
2024/03/14 03:13:40;;;;;;;7.27;6.57;;;10.20;99.90;;;;;;5037757;28;20190;-85
2024/03/14 03:16:06;;;;;;;7.00;6.30;;;9.80;99.90;;;;;;5036094;28;20292;-86
2024/03/14 03:18:34;;;;;;;6.33;5.73;;;9.50;99.90;;;;;;5038230;28;20217;-86
2024/03/14 03:20:59;;;;;;;6.95;6.25;;;9.80;99.90;;;;;;5038194;28;20183;-86
2024/03/14 03:23:25;;;;;;;5.90;5.50;;;9.80;99.90;;;;;;5053550;28;20203;-86
2024/03/14 03:25:53;;;;;;;7.35;6.68;;;10.10;99.90;;;;;;5057176;28;20210;-86
2024/03/14 03:28:18;;;;;;;7.10;6.40;;;9.10;99.90;;;;;;5070014;28;20194;-86
2024/03/14 03:30:44;;;;;;;7.97;6.63;;;9.50;99.90;;;;;;5040401;28;20286;-87
2024/03/14 03:33:16;;;;;;;7.60;5.90;;;9.00;99.90;;;;;;5041584;28;20194;-87
2024/03/14 03:35:45;;;;;;;6.50;5.90;;;9.50;99.90;;;;;;5039552;28;20207;-87
2024/03/14 03:38:13;;;;;;;7.93;6.55;;;9.40;99.90;;;;;;5038097;28;20183;-87
2024/03/14 03:40:43;;;;;;;7.13;6.43;;;9.60;99.90;;;;;;5048164;28;20178;-87
2024/03/14 03:43:09;;;;;;;6.80;6.18;;;9.40;99.90;;;;;;5039626;28;20211;-86
2024/03/14 03:45:35;;;;;;;6.80;6.15;;;9.30;99.90;;;;;;5043811;28;20209;-87
2024/03/14 03:48:01;;;;;;;7.23;6.47;;;9.30;99.90;;;;;;5039854;28;20182;-87
2024/03/14 03:50:27;;;;;;;6.50;5.87;;;;;;;;;;5042591;28;20412;-87
2024/03/14 03:52:53;;;;;;;6.70;6.07;;;9.20;99.90;;;;;;5055795;28;20427;-87
2024/03/14 03:55:21;;;;;;;6.35;5.75;;;9.20;99.90;;;;;;5049871;28;20191;-86
2024/03/14 03:57:47;;;;;;;7.75;6.57;;;9.30;99.90;;;;;;5041971;28;20290;-86
2024/03/14 04:02:57;;;;;;;7.53;6.80;;;9.10;99.90;;;;;;5055881;28;20501;-87
2024/03/14 04:05:26;;;;;;;6.60;6.00;;;9.20;99.90;;;;;;5055792;28;20168;-87
2024/03/14 04:07:59;;;;;;;7.55;6.75;;;9.20;99.90;;;;;;5055833;28;20170;-87
2024/03/14 04:10:24;;;;;;;7.13;6.35;;;9.40;99.90;;;;;;5056168;28;20262;-87
2024/03/14 04:12:51;;;;;;;5.90;5.40;;;9.30;99.90;;;;;;5055997;28;20178;-87
2024/03/14 04:15:17;;;;;;;7.22;6.53;;;9.70;99.90;;;;;;5050900;28;20175;-88
2024/03/14 04:17:44;;;;;;;6.87;6.13;;;9.40;99.90;;;;;;5055027;28;20198;-87
2024/03/14 04:20:19;;;;;;;7.45;6.05;;;9.20;99.90;;;;;;5055648;28;20174;-86
2024/03/14 04:22:45;;;;;;;7.03;6.20;;;9.30;99.90;;;;;;5053357;28;20202;-87
2024/03/14 04:25:14;;;;;;;6.57;5.80;;;9.10;99.90;;;;;;5072249;28;20175;-87
2024/03/14 04:27:43;;;;;;;6.50;5.80;;;9.20;99.90;;;;;;5055508;28;20167;-86
2024/03/14 04:30:17;;;;;;;6.90;6.30;;;9.00;99.90;;;;;;5038474;28;20233;-87
2024/03/14 04:32:45;;;;;;;7.43;6.65;;;9.10;99.90;;;;;;5053901;28;20198;-87
2024/03/14 04:35:11;;;;;;;8.75;7.03;;;9.40;99.90;;;;;;5055083;28;20234;-88
2024/03/14 04:37:37;;;;;;;8.63;7.70;;;9.10;99.90;;;;;;5070785;28;20237;-87
2024/03/14 04:40:10;;;;;;;8.15;7.35;;;9.50;99.90;;;;;;5056308;28;20424;-87
2024/03/14 04:42:36;;;;;;;7.70;6.88;;;9.10;99.90;;;;;;5052855;28;20227;-87
2024/03/14 04:45:03;;;;;;;8.70;7.80;;;9.10;99.90;;;;;;5070397;28;20210;-87
2024/03/14 04:47:29;;;;;;;7.68;6.65;;;9.00;99.90;;;;;;5050525;28;20243;-87
2024/03/14 04:49:55;;;;;;;8.00;7.07;;;9.10;99.90;;;;;;5037506;28;20186;-87
2024/03/14 04:52:20;;;;;;;7.47;6.70;;;9.00;99.90;;;;;;5058641;28;20185;-87
2024/03/14 04:54:46;;;;;;;8.20;6.97;;;9.00;99.90;;;;;;5044253;28;20195;-88
2024/03/14 04:57:12;;;;;;;7.40;6.57;;;9.00;99.90;;;;;;5048675;28;20640;-88
2024/03/14 04:59:40;;;;;;;8.80;7.50;;;9.10;99.90;;;;;;5030099;28;20195;-88
2024/03/14 05:02:07;;;;;;;7.22;6.45;;;9.50;99.90;;;;;;5043558;28;20240;-87
2024/03/14 05:04:33;;;;;;;8.20;7.40;;;9.30;99.90;;;;;;5029077;28;20190;-88
2024/03/14 05:06:58;;;;;;;7.97;6.47;;;8.90;99.90;;;;;;5027718;28;20308;-88
2024/03/14 05:09:24;;;;;;;6.90;6.20;;;8.90;99.90;;;;;;5029612;28;20232;-88
2024/03/14 05:11:50;;;;;;;7.90;7.10;;;8.90;99.90;;;;;;5045793;28;20217;-88
2024/03/14 05:14:15;;;;;;;8.50;7.60;;;8.70;99.90;;;;;;5028538;28;20306;-87
2024/03/14 05:16:42;;;;;;;9.60;7.83;;;8.70;99.90;;;;;;5012685;28;20211;-88
2024/03/14 05:19:07;;;;;;;8.30;6.90;;;8.60;99.90;;;;;;5024114;28;20194;-87
2024/03/14 05:21:33;;;;;;;9.90;8.20;;;8.60;99.90;;;;;;5041006;28;20189;-87
2024/03/14 05:23:59;;;;;;;8.97;7.57;;;8.80;99.90;;;;;;5028759;28;20554;-87
2024/03/14 05:26:27;;;;;;;9.77;8.77;;;8.60;99.90;;;;;;5029530;28;20198;-88
2024/03/14 05:28:53;;;;;;;11.05;9.35;;;9.00;99.90;;;;;;5029032;28;20187;-88
2024/03/14 05:31:19;;;;;;;9.10;7.95;;;9.10;99.90;;;;;;5044808;28;20201;-87
2024/03/14 05:33:45;;;;;;;9.30;7.63;;;9.00;99.90;;;;;;5036733;28;20186;-87
2024/03/14 05:36:10;;;;;;;10.88;8.82;;;8.60;99.90;;;;;;5037767;28;20329;-86
2024/03/14 05:38:37;;;;;;;10.90;8.50;;;8.40;99.90;;;;;;5056155;28;20656;-86
2024/03/14 05:41:02;;;;;;;11.95;9.15;;;8.90;99.90;;;;;;5037217;28;20664;-86
2024/03/14 05:43:28;;;;;;;12.03;8.90;;;8.30;99.90;;;;;;5037224;28;20211;-86
2024/03/14 05:45:53;;;;;;;11.90;9.50;;;9.10;99.90;;;;;;5033154;28;20435;-87
2024/03/14 05:48:23;;;;;;;12.97;9.90;;;8.70;99.90;;;;;;5048440;28;21380;-87
2024/03/14 05:50:48;;;;;;;12.63;9.38;;;8.70;99.90;;;;;;5029631;28;20554;-87
2024/03/14 05:53:15;;;;;;;12.90;11.00;;;9.10;99.90;;;;;;5025021;28;20190;-89
2024/03/14 05:55:40;;;;;;;16.35;10.95;;;8.70;99.90;;;;;;5029275;28;20560;-89
2024/03/14 05:58:06;;;;;;;12.70;10.00;;;8.60;99.90;;;;;;5031702;28;20222;-89
2024/03/14 06:00:32;;;;;;;13.37;10.67;;;9.00;99.90;;;;;;5029586;28;20184;-89
2024/03/14 06:02:57;;;;;;;13.10;10.03;;;8.80;99.90;;;;;;5027476;28;20210;-89
2024/03/14 06:05:23;;;;;;;12.13;10.50;;;8.80;99.90;;;;;;5048754;28;20178;-89
2024/03/14 06:07:50;;;;;;;12.47;9.50;;;8.90;99.90;;;;;;5044262;28;20178;-89
2024/03/14 06:10:18;;;;;;;13.52;10.80;;;9.10;99.90;;;;;;5030942;28;20182;-89
2024/03/14 06:12:45;;;;;;;13.63;10.38;;;9.40;99.90;;;;;;5027979;28;20205;-88
2024/03/14 06:15:14;;;;;;;14.90;11.30;;;8.80;99.90;;;;;;5031872;28;20215;-89
2024/03/14 06:17:40;;;;;;;12.05;9.85;;;8.90;99.90;;;;;;5033712;28;20198;-88
2024/03/14 06:20:11;;;;;;;14.80;10.45;;;9.00;99.90;;;;;;5030832;28;20722;-88
2024/03/14 06:22:39;;;;;;;14.68;10.75;;;9.00;99.90;;;;;;5028608;28;20373;-88
2024/03/14 06:25:07;;;;;;;12.50;10.20;;;9.50;99.90;;;;;;5028732;28;20187;-88
2024/03/14 06:27:33;;;;;;;14.32;10.88;;;9.10;99.90;;;;;;5027129;28;20710;-88
2024/03/14 06:29:59;;;;;;;12.88;10.00;;;9.50;99.90;;;;;;5015276;28;20194;-88
2024/03/14 06:32:24;;;;;;;12.70;10.33;;;9.50;99.90;;;;;;5030751;28;20553;-87
2024/03/14 06:34:51;;;;;;;14.00;9.97;;;9.20;99.90;;;;;;5018928;28;20199;-88
2024/03/14 06:37:17;;;;;;;13.90;10.75;;;9.10;99.90;;;;;;5034274;28;20292;-86
2024/03/14 06:39:45;;;;;;;14.30;10.15;;;9.10;99.90;;;;;;5031015;28;20265;-87
2024/03/14 06:42:11;;;;;;;13.35;9.65;;;9.10;99.90;;;;;;5052810;28;20186;-87
2024/03/14 06:44:37;;;;;;;13.70;10.65;;;9.60;99.90;;;;;;5048938;28;20268;-88
2024/03/14 06:47:03;;;;;;;13.10;10.43;;;9.40;99.90;;;;;;5035565;28;20207;-88
2024/03/14 06:49:31;;;;;;;13.88;10.98;;;9.30;99.90;;;;;;5035668;28;20183;-88
2024/03/14 06:52:00;;;;;;;13.55;9.40;;;9.20;99.90;;;;;;5036137;28;20214;-87
2024/03/14 06:54:25;;;;;;;14.68;9.63;;;9.50;99.90;;;;;;5031918;28;20214;-87
2024/03/14 06:56:53;;;;;;;11.17;9.43;;;9.60;99.90;;;;;;5035552;28;20214;-88
2024/03/14 06:59:19;;;;;;;12.48;9.73;;;9.90;99.90;;;;;;5031283;28;20196;-88
2024/03/14 07:01:46;;;;;;;14.02;10.40;;;9.80;99.90;;;;;;5034861;28;20193;-89
2024/03/14 07:04:13;;;;;;;14.70;9.60;;;10.50;99.90;;;;;;5051260;28;20649;-87
2024/03/14 07:06:38;;;;;;;11.60;9.00;;;10.10;99.90;;;;;;5032660;28;20279;-87
2024/03/14 07:09:09;;;;;;;11.93;9.90;;;10.50;99.90;;;;;;5038136;28;20199;-87
2024/03/14 07:11:34;;;;;;;11.30;9.77;;;10.80;99.90;;;;;;5031620;28;21142;-87
2024/03/14 07:14:00;;;;;;;16.33;9.87;;;12.50;99.90;;;;;;5054641;28;20233;-87
2024/03/14 07:16:25;;;;;;;10.80;9.03;;;10.40;99.90;;;;;;5025083;28;20202;-87
2024/03/14 07:18:54;;;;;;;9.97;8.60;;;10.50;99.90;;;;;;5057128;28;20183;-87
2024/03/14 07:21:22;;;;;;;10.68;8.90;;;10.50;99.90;;;;;;5043567;28;20207;-89
2024/03/14 07:23:48;;;;;;;9.75;8.23;;;10.50;99.90;;;;;;5035692;28;20234;-88
2024/03/14 07:26:24;;;;;;;10.70;9.00;;;10.60;99.90;;;;;;5040097;28;20207;-88
2024/03/14 07:28:53;;;;;;;9.07;8.15;;;10.70;99.90;;;;;;5033557;28;20250;-88
2024/03/14 07:31:19;;;;;;;9.00;7.78;;;11.10;99.90;;;;;;5036756;28;20187;-88
2024/03/14 07:33:45;;;;;;;10.18;8.50;;;10.90;99.90;;;;;;5034788;28;20671;-86
2024/03/14 07:36:15;;;;;;;10.85;7.78;;;11.10;99.90;;;;;;5034440;28;20864;-89
2024/03/14 07:38:49;;;;;;;10.52;7.85;;;11.10;99.90;;;;;;5033599;28;20192;-85
2024/03/14 07:41:22;;;;;;;9.60;7.60;;;11.00;99.90;;;;;;5037045;28;20209;-86
2024/03/14 07:43:48;;;;;;;9.70;7.35;;;10.70;99.90;;;;;;5054070;28;20204;-88
2024/03/14 07:46:14;;;;;;;8.20;7.15;;;11.60;99.90;;;;;;5034208;28;20207;-87
2024/03/14 07:48:41;;;;;;;8.43;6.75;;;11.80;99.90;;;;;;5034482;28;20239;-87
2024/03/14 07:51:10;;;;;;;9.65;7.55;;;11.60;99.90;;;;;;5037640;28;20197;-87
2024/03/14 07:53:35;;;;;;;8.05;6.97;;;12.30;99.90;;;;;;5038081;28;20197;-84
2024/03/14 07:56:01;;;;;;;8.60;7.70;;;12.20;99.90;;;;;;5034572;28;20205;-85
2024/03/14 07:58:27;;;;;;;8.87;7.00;;;12.30;99.90;;;;;;5032695;28;20213;-87
2024/03/14 08:00:53;;;;;;;7.35;6.43;;;12.20;99.90;;;;;;5038272;28;20198;-86
2024/03/14 08:03:19;;;;;;;7.77;6.63;;;12.30;99.90;;;;;;5032732;28;20228;-87
2024/03/14 08:05:50;;;;;;;8.48;6.47;;;13.10;99.90;;;;;;5046101;28;20468;-85
2024/03/14 08:08:17;;;;;;;7.40;6.70;;;12.40;99.90;;;;;;5047828;28;20182;-86
2024/03/14 08:10:45;;;;;;;7.13;6.43;;;13.30;99.90;;;;;;5045406;28;20245;-86
2024/03/14 08:13:17;;;;;;;7.57;6.60;;;13.30;99.90;;;;;;5041047;28;20258;-86
2024/03/14 08:15:59;;;;;;;6.30;5.70;;;13.50;99.90;;;;;;5052001;28;20202;-85
2024/03/14 08:18:25;;;;;;;7.32;6.63;;;14.10;99.90;;;;;;5054181;28;20239;-85
2024/03/14 08:20:55;;;;;;;7.00;6.30;;;14.20;99.90;;;;;;5038085;28;20207;-86
2024/03/14 08:23:21;;;;;;;8.65;6.60;;;14.40;99.90;;;;;;5034053;28;20210;-89
2024/03/14 08:25:47;;;;;;;6.70;6.10;;;14.60;99.90;;;;;;5032231;28;20214;-89
2024/03/14 08:28:16;;;;;;;8.43;6.50;;;15.40;99.90;;;;;;5034907;28;20179;-88
2024/03/14 08:30:45;;;;;;;6.60;5.93;;;15.40;99.90;;;;;;5015044;28;20196;-89
2024/03/14 08:33:10;;;;;;;6.10;5.30;;;15.00;99.90;;;;;;5036020;28;20211;-89
2024/03/14 08:35:42;;;;;;;6.30;4.90;;;14.60;99.90;;;;;;5067284;28;20193;-89
2024/03/14 08:38:08;;;;;;;5.63;4.68;;;14.50;99.90;;;;;;5048553;28;20191;-88
2024/03/14 08:40:34;;;;;;;5.10;4.60;;;14.60;99.90;;;;;;5031094;28;20187;-88
2024/03/14 08:43:01;;;;;;;5.20;4.47;;;14.60;99.90;;;;;;5052074;28;20217;-87
2024/03/14 08:45:27;;;;;;;5.75;4.97;;;14.40;99.90;;;;;;5038585;28;22274;-87
2024/03/14 08:47:53;;;;;;;8.05;6.18;;;14.40;99.90;;;;;;5035760;28;20654;-87
2024/03/14 08:50:21;;;;;;;6.50;5.40;;;14.90;99.90;;;;;;5037504;28;20190;-87
2024/03/14 08:52:47;;;;;;;5.68;4.80;;;15.10;99.90;;;;;;5032359;28;20182;-88
2024/03/14 08:58:02;;;;;;;6.00;5.40;;;15.80;99.90;;;;;;5031940;28;20873;-89
2024/03/14 09:00:28;;;;;;;5.30;4.80;;;16.30;99.90;;;;;;5033123;28;20229;-88
2024/03/14 09:02:53;;;;;;;4.27;3.97;;;16.80;99.90;;;;;;5036784;28;20202;-87
2024/03/14 09:05:20;;;;;;;5.33;4.80;;;17.70;99.90;;;;;;5038481;28;20800;-88
2024/03/14 09:07:46;;;;;;;4.15;3.75;;;16.90;98.80;;;;;;5038470;28;20195;-86
2024/03/14 09:10:25;;;;;;;3.70;3.40;;;17.30;98.80;;;;;;5023697;28;20190;-88
2024/03/14 09:12:52;;;;;;;3.70;3.40;;;17.20;97.50;;;;;;5052147;28;20196;-88
2024/03/14 09:15:18;;;;;;;3.42;3.13;;;18.00;97.20;;;;;;5053724;28;20174;-87
2024/03/14 09:17:45;;;;;;;5.28;3.80;;;18.20;96.30;;;;;;5052779;28;20190;-85
2024/03/14 09:20:15;;;;;;;4.50;3.40;;;17.50;96.30;;;;;;5046357;28;20178;-85
2024/03/14 09:22:44;;;;;;;4.03;3.72;;;17.30;96.70;;;;;;5044421;28;20315;-87
2024/03/14 09:25:14;;;;;;;3.30;3.00;;;18.10;96.20;;;;;;5032514;28;20315;-89
2024/03/14 09:27:42;;;;;;;3.42;3.13;;;18.20;95.80;;;;;;5034542;28;20208;-88
2024/03/14 09:30:08;;;;;;;3.80;3.50;;;17.40;95.40;;;;;;5017457;28;20229;-88
2024/03/14 09:32:35;;;;;;;3.10;2.80;;;18.00;95.90;;;;;;5048094;28;20198;-85
2024/03/14 09:35:05;;;;;;;2.80;2.60;;;18.10;94.60;;;;;;5052013;28;20197;-83
2024/03/14 09:37:31;;;;;;;4.07;3.20;;;19.20;94.30;;;;;;5047055;28;20200;-83
2024/03/14 09:39:58;;;;;;;3.35;2.78;;;19.50;93.90;;;;;;5038929;28;20210;-83
2024/03/14 09:42:25;;;;;;;3.15;2.85;;;19.20;92.90;;;;;;5035469;28;20194;-83
2024/03/14 09:44:51;;;;;;;3.10;2.90;;;19.00;93.20;;;;;;5034936;28;20285;-83
2024/03/14 09:47:37;;;;;;;3.50;3.20;;;18.10;93.50;;;;;;5027835;28;20229;-83
2024/03/14 09:50:05;;;;;;;2.80;2.60;;;18.00;94.30;;;;;;5017114;28;20323;-86
2024/03/14 09:52:34;;;;;;;3.67;2.50;;;17.90;94.60;;;;;;5037326;28;20171;-88
2024/03/14 09:55:00;;;;;;;4.00;2.65;;;18.10;95.60;;;;;;5029432;28;20187;-87
2024/03/14 09:57:26;;;;;;;2.45;2.25;;;18.00;96.30;;;;;;5032816;28;20228;-86
2024/03/14 09:59:55;;;;;;;3.30;3.10;;;17.50;95.80;;;;;;5036337;28;20178;-87
2024/03/14 10:02:24;;;;;;;3.45;2.70;;;18.00;96.00;;;;;;5033971;28;20190;-86
2024/03/14 10:04:50;;;;;;;2.75;2.55;;;17.70;95.60;;;;;;5033581;28;20187;-87
2024/03/14 10:07:16;;;;;;;2.93;2.60;;;17.50;96.10;;;;;;5032733;28;20285;-87
2024/03/14 10:09:43;;;;;;;2.50;2.20;;;17.80;95.60;;;;;;5015340;28;20500;-87
2024/03/14 10:12:14;;;;;;;2.75;2.55;;;18.70;94.60;;;;;;5032867;28;20659;-87
2024/03/14 10:14:41;;;;;;;3.58;2.58;;;19.20;93.80;;;;;;5030446;28;20202;-87
2024/03/14 10:17:07;;;;;;;3.85;2.90;;;19.60;93.30;;;;;;5034212;28;20589;-86
2024/03/14 10:19:35;;;;;;;2.55;2.33;;;20.20;92.30;;;;;;5035207;28;20228;-87
2024/03/14 10:22:01;;;;;;;2.80;2.60;;;20.30;91.60;;;;;;5035345;28;20183;-87
2024/03/14 10:24:27;;;;;;;2.37;2.17;;;20.40;91.30;;;;;;5013595;28;20221;-87
2024/03/14 10:26:54;;;;;;;4.22;2.63;;;20.10;91.60;;;;;;5049395;28;20444;-86
2024/03/14 10:29:22;;;;;;;2.85;2.60;;;20.40;91.40;;;;;;5051832;28;20186;-86
2024/03/14 10:31:48;;;;;;;2.72;2.53;;;20.50;90.80;;;;;;5062712;28;20248;-86
2024/03/14 10:34:14;;;;;;;2.60;2.40;;;20.30;91.30;;;;;;5059231;28;20182;-87
2024/03/14 10:36:41;;;;;;;2.97;2.67;;;20.20;90.90;;;;;;5035834;28;20268;-87
2024/03/14 10:39:16;;;;;;;2.35;2.25;;;20.50;90.80;;;;;;5036872;28;20201;-88
2024/03/14 10:41:48;;;;;;;2.90;2.70;;;21.10;90.10;;;;;;5032588;28;20186;-86
2024/03/14 10:44:18;;;;;;;2.40;2.20;;;20.80;90.80;;;;;;5036442;28;20211;-84
2024/03/14 10:46:53;;;;;;;2.78;2.58;;;19.80;90.80;;;;;;5038779;28;20208;-84
2024/03/14 10:49:22;;;;;;;2.40;2.20;;;20.90;91.50;;;;;;5039216;28;20591;-85
2024/03/14 10:51:54;;;;;;;2.70;2.50;;;20.30;90.70;;;;;;5037985;28;20182;-86
2024/03/14 10:54:26;;;;;;;3.35;2.30;;;21.30;91.20;;;;;;5036916;28;20228;-88
2024/03/14 10:56:52;;;;;;;2.20;2.00;;;20.80;90.20;;;;;;5033677;28;20210;-88
2024/03/14 10:59:21;;;;;;;1.75;1.65;;;21.30;90.60;;;;;;5031356;28;20252;-88
2024/03/14 11:01:53;;;;;;;2.35;2.15;;;20.80;89.40;;;;;;5026926;28;20288;-88
2024/03/14 11:04:23;;;;;;;1.85;1.67;;;20.70;89.00;;;;;;5028656;28;20264;-88
2024/03/14 11:06:57;;;;;;;1.60;1.50;;;20.90;89.30;;;;;;5016160;28;20220;-88
2024/03/14 11:09:25;;;;;;;2.00;1.67;;;20.80;88.70;;;;;;5046289;28;20183;-88
2024/03/14 11:11:55;;;;;;;4.20;2.03;;;21.00;89.50;;;;;;5030705;28;20190;-87
2024/03/14 11:14:36;;;;;;;2.60;1.48;;;20.30;90.10;;;;;;5031222;28;20190;-88
2024/03/14 11:17:03;;;;;;;1.85;1.75;;;19.80;91.00;;;;;;5026548;28;20218;-88
2024/03/14 11:19:30;;;;;;;1.48;1.38;;;19.00;90.40;;;;;;5033020;28;20193;-89
2024/03/14 11:21:57;;;;;;;1.80;1.70;;;19.80;91.10;;;;;;5045083;28;20190;-87
2024/03/14 11:24:30;;;;;;;1.85;1.75;;;20.00;91.10;;;;;;5030544;28;20268;-87
2024/03/14 11:26:59;;;;;;;1.55;1.45;;;19.70;91.30;;;;;;5028932;28;20206;-86
2024/03/14 11:29:25;;;;;;;1.70;1.60;;;19.30;90.80;;;;;;5043826;28;20186;-86
2024/03/14 11:32:18;;;;;;;1.63;1.52;;;19.90;91.10;;;;;;5029813;28;20800;-86
2024/03/14 11:34:45;;;;;;;1.52;1.30;;;20.00;90.80;;;;;;5027856;28;20190;-86
2024/03/14 11:37:11;;;;;;;1.70;1.60;;;20.40;90.50;;;;;;5029695;28;20292;-86
2024/03/14 11:39:37;;;;;;;1.80;1.50;;;20.20;90.30;;;;;;5026710;28;21067;-87
2024/03/14 11:42:10;;;;;;;2.37;1.73;;;20.00;90.10;;;;;;5027533;28;20174;-86
2024/03/14 11:44:43;;;;;;;1.70;1.60;;;19.80;90.20;;;;;;5028879;28;20210;-87
2024/03/14 11:47:18;;;;;;;2.25;1.70;;;20.00;90.80;;;;;;5035856;28;20210;-86
2024/03/14 11:49:44;;;;;;;1.50;1.40;;;19.90;91.40;;;;;;5047000;28;20192;-87
2024/03/14 11:52:11;;;;;;;1.40;1.20;;;19.60;90.70;;;;;;5051543;28;20198;-88
2024/03/14 11:54:40;;;;;;;1.60;1.50;;;19.90;90.40;;;;;;5053989;28;20201;-88
2024/03/14 11:57:07;;;;;;;2.95;1.40;;;20.10;89.80;;;;;;5037819;28;20214;-88
2024/03/14 11:59:33;;;;;;;1.95;1.40;;;20.80;88.80;;;;;;5049428;28;20166;-87
2024/03/14 12:02:02;;;;;;;3.10;1.40;;;20.70;89.00;;;;;;5031232;28;20206;-87
2024/03/14 12:04:29;;;;;;;1.88;1.27;;;21.10;87.80;;;;;;5030705;28;20252;-88
2024/03/14 12:06:55;;;;;;;1.20;1.10;;;21.30;87.80;;;;;;5014192;28;20937;-88
2024/03/14 12:09:21;;;;;;;1.20;1.10;;;20.40;86.90;;;;;;5030166;28;20190;-87
2024/03/14 12:11:49;;;;;;;1.30;1.20;;;20.80;88.50;;;;;;5034034;28;20175;-86
2024/03/14 12:14:19;;;;;;;1.30;1.02;;;20.90;87.40;;;;;;5037681;28;20186;-86
2024/03/14 12:16:46;;;;;;;1.20;0.90;;;20.90;85.20;;;;;;5032285;28;20202;-86
2024/03/14 12:19:16;;;;;;;1.20;1.10;;;20.80;86.40;;;;;;5031955;28;20189;-86
2024/03/14 12:22:02;;;;;;;1.20;1.10;;;21.00;86.80;;;;;;5033047;28;20188;-88
2024/03/14 12:24:28;;;;;;;1.35;1.20;;;20.20;87.00;;;;;;5031798;28;20238;-92
2024/03/14 12:26:57;;;;;;;1.30;1.00;;;19.90;87.90;;;;;;5034209;28;20198;-92
2024/03/14 12:29:24;;;;;;;1.10;1.00;;;20.60;87.40;;;;;;5037584;28;20217;-92
2024/03/14 12:31:50;;;;;;;1.50;1.10;;;21.90;88.60;;;;;;5051422;28;20182;-93
2024/03/14 12:34:18;;;;;;;1.10;1.00;;;20.90;87.40;;;;;;5035382;28;20205;-91
2024/03/14 12:36:47;;;;;;;1.70;1.35;;;20.10;86.90;;;;;;5050353;28;20460;-91
2024/03/14 12:39:17;;;;;;;1.13;1.02;;;19.90;87.30;;;;;;5000608;28;20206;-91
2024/03/14 12:41:43;;;;;;;1.25;0.90;;;20.10;87.80;;;;;;5034110;28;20736;-91
2024/03/14 12:44:10;;;;;;;1.63;0.90;;;20.30;88.20;;;;;;5032593;28;20232;-90
2024/03/14 12:46:38;;;;;;;2.35;1.25;;;19.50;87.80;;;;;;5014678;28;20289;-89
2024/03/14 12:49:07;;;;;;;1.88;1.40;;;21.00;88.10;;;;;;5020726;28;20255;-84
2024/03/14 12:51:33;;;;;;;1.60;1.50;;;20.00;88.20;;;;;;5036608;28;20186;-84
2024/03/14 12:54:03;;;;;;;1.87;1.17;;;20.00;88.20;;;;;;5042981;28;20221;-84
2024/03/14 12:56:29;;;;;;;1.08;0.98;;;19.80;87.80;;;;;;5043913;28;20229;-84